createdAt,value
2023-01-10T00:00:35.347Z,3.90
2023-01-10T00:03:08.234Z,3.90
2023-01-10T00:05:36.271Z,3.90
2023-01-10T00:08:03.691Z,3.80
2023-01-10T00:10:31.817Z,3.90
2023-01-10T00:13:17.245Z,3.90
2023-01-10T00:15:44.118Z,3.80
2023-01-10T00:18:11.331Z,3.80
2023-01-10T00:20:38.004Z,3.80
2023-01-10T00:23:04.855Z,3.90
2023-01-10T00:25:34.287Z,3.80
2023-01-10T00:28:19.487Z,3.70
2023-01-10T00:30:59.928Z,3.80
2023-01-10T00:33:28.090Z,3.80
2023-01-10T00:35:54.723Z,3.70
2023-01-10T00:38:21.487Z,3.70
2023-01-10T00:40:48.211Z,3.70
2023-01-10T00:43:33.895Z,3.80
2023-01-10T00:46:02.761Z,3.70
2023-01-10T00:48:29.928Z,3.70
2023-01-10T00:50:56.700Z,3.70
2023-01-10T00:53:23.588Z,3.70
2023-01-10T00:55:50.335Z,3.70
2023-01-10T00:58:17.712Z,3.70
2023-01-10T01:00:49.717Z,3.70
2023-01-10T01:03:18.801Z,3.70
2023-01-10T01:05:47.159Z,3.60
2023-01-10T01:08:15.435Z,3.70
2023-01-10T01:10:42.245Z,3.60
2023-01-10T01:13:15.161Z,3.60
2023-01-10T01:15:42.030Z,3.70
2023-01-10T01:18:11.954Z,3.70
2023-01-10T01:20:40.320Z,3.70
2023-01-10T01:23:07.488Z,3.60
2023-01-10T01:25:34.386Z,3.60
2023-01-10T01:28:01.915Z,3.60
2023-01-10T01:30:28.707Z,3.60
2023-01-10T01:32:55.441Z,3.60
2023-01-10T01:35:22.979Z,3.50
2023-01-10T01:37:49.626Z,3.50
2023-01-10T01:40:19.187Z,3.50
2023-01-10T01:42:46.488Z,3.40
2023-01-10T01:45:33.802Z,3.40
2023-01-10T01:48:00.464Z,3.30
2023-01-10T01:50:31.626Z,3.40
2023-01-10T01:53:02.078Z,3.40
2023-01-10T01:55:32.285Z,3.40
2023-01-10T01:58:03.549Z,3.40
2023-01-10T02:00:30.203Z,3.40
2023-01-10T02:03:02.964Z,3.40
2023-01-10T02:05:31.097Z,3.40
2023-01-10T02:07:59.713Z,3.40
2023-01-10T02:10:29.327Z,3.40
2023-01-10T02:13:01.097Z,3.30
2023-01-10T02:15:28.099Z,3.40
2023-01-10T02:17:55.115Z,3.30
2023-01-10T02:20:23.243Z,3.30
2023-01-10T02:23:02.167Z,3.40
2023-01-10T02:26:06.505Z,3.30
2023-01-10T02:29:00.389Z,3.40
2023-01-10T02:31:30.204Z,3.40
2023-01-10T02:34:09.840Z,3.30
2023-01-10T02:36:55.052Z,3.40
2023-01-10T02:39:31.396Z,3.40
2023-01-10T02:42:25.495Z,3.40
2023-01-10T02:45:04.862Z,3.40
2023-01-10T02:47:39.420Z,3.40
2023-01-10T02:50:41.332Z,3.40
2023-01-10T02:53:52.797Z,3.50
2023-01-10T02:56:25.316Z,3.50
2023-01-10T02:59:06.868Z,3.50
2023-01-10T03:02:02.112Z,3.40
2023-01-10T03:05:03.981Z,3.40
2023-01-10T03:07:46.492Z,3.40
2023-01-10T03:10:23.642Z,3.50
2023-01-10T03:13:05.872Z,3.40
2023-01-10T03:15:37.166Z,3.50
2023-01-10T03:18:12.892Z,3.50
2023-01-10T03:20:44.723Z,3.50
2023-01-10T03:23:14.830Z,3.50
2023-01-10T03:25:43.341Z,3.50
2023-01-10T03:28:18.116Z,3.50
2023-01-10T03:31:04.264Z,3.50
2023-01-10T03:33:33.559Z,3.50
2023-01-10T03:36:09.331Z,3.50
2023-01-10T03:38:45.388Z,3.50
2023-01-10T03:41:14.809Z,3.60
2023-01-10T03:44:08.233Z,3.50
2023-01-10T03:47:05.787Z,3.50
2023-01-10T03:49:35.617Z,3.50
2023-01-10T03:52:03.491Z,3.50
2023-01-10T03:54:30.445Z,3.50
2023-01-10T03:56:57.304Z,3.50
2023-01-10T03:59:26.708Z,3.50
2023-01-10T04:01:54.949Z,3.50
2023-01-10T04:04:22.312Z,3.50
2023-01-10T04:06:49.024Z,3.50
2023-01-10T04:09:15.747Z,3.50
2023-01-10T04:11:42.488Z,3.50
2023-01-10T04:14:09.277Z,3.50
2023-01-10T04:16:36.196Z,3.50
2023-01-10T04:19:03.007Z,3.40
2023-01-10T04:21:29.860Z,3.40
2023-01-10T04:23:56.621Z,3.40
2023-01-10T04:26:23.397Z,3.40
2023-01-10T04:28:50.338Z,3.40
2023-01-10T04:31:17.211Z,3.40
2023-01-10T04:33:44.315Z,3.30
2023-01-10T04:36:11.080Z,3.40
2023-01-10T04:38:37.872Z,3.30
2023-01-10T04:41:04.676Z,3.30
2023-01-10T04:43:31.489Z,3.30
2023-01-10T04:45:58.298Z,3.30
2023-01-10T04:48:27.038Z,3.30
2023-01-10T04:50:54.479Z,3.30
2023-01-10T04:53:21.666Z,3.20
2023-01-10T04:55:48.832Z,3.20
2023-01-10T04:58:15.929Z,3.20
2023-01-10T05:00:42.718Z,3.20
2023-01-10T05:03:09.494Z,3.20
2023-01-10T05:05:36.389Z,3.20
2023-01-10T05:08:03.219Z,3.20
2023-01-10T05:10:29.952Z,3.10
2023-01-10T05:12:56.682Z,3.10
2023-01-10T05:15:23.497Z,3.10
2023-01-10T05:17:51.321Z,3.10
2023-01-10T05:20:18.332Z,3.10
2023-01-10T05:22:45.965Z,3.10
2023-01-10T05:25:12.937Z,3.10
2023-01-10T05:27:42.987Z,3.10
2023-01-10T05:30:13.874Z,3.20
2023-01-10T05:32:40.889Z,3.10
2023-01-10T05:35:08.086Z,3.20
2023-01-10T05:37:35.014Z,3.20
2023-01-10T05:40:01.875Z,3.20
2023-01-10T05:42:28.708Z,3.20
2023-01-10T05:44:55.390Z,3.20
2023-01-10T05:47:23.305Z,3.30
2023-01-10T05:49:50.045Z,3.20
2023-01-10T05:52:16.751Z,3.20
2023-01-10T05:54:43.534Z,3.20
2023-01-10T05:57:10.450Z,3.30
2023-01-10T05:59:37.130Z,3.30
2023-01-10T06:02:04.102Z,3.30
2023-01-10T06:04:30.822Z,3.30
2023-01-10T06:06:57.493Z,3.30
2023-01-10T06:09:24.225Z,3.30
2023-01-10T06:11:50.987Z,3.30
2023-01-10T06:14:19.493Z,3.20
2023-01-10T06:16:46.915Z,3.20
2023-01-10T06:19:13.619Z,3.20
2023-01-10T06:21:40.484Z,3.20
2023-01-10T06:24:07.567Z,3.10
2023-01-10T06:26:34.290Z,3.20
2023-01-10T06:29:01.124Z,3.10
2023-01-10T06:31:28.053Z,3.00
2023-01-10T06:33:54.892Z,3.00
2023-01-10T06:36:21.672Z,3.10
2023-01-10T06:38:48.483Z,3.00
2023-01-10T06:41:15.153Z,3.00
2023-01-10T06:43:46.773Z,3.00
2023-01-10T06:46:16.555Z,3.00
2023-01-10T06:48:45.668Z,3.00
2023-01-10T06:51:14.301Z,3.00
2023-01-10T06:53:41.305Z,2.90
2023-01-10T06:56:09.787Z,2.90
2023-01-10T06:58:39.238Z,2.90
2023-01-10T07:01:17.887Z,2.90
2023-01-10T07:03:44.897Z,2.80
2023-01-10T07:06:12.058Z,2.90
2023-01-10T07:08:41.082Z,2.80
2023-01-10T07:11:09.188Z,2.80
2023-01-10T07:13:36.232Z,2.80
2023-01-10T07:16:04.560Z,2.80
2023-01-10T07:18:32.276Z,2.80
2023-01-10T07:20:59.039Z,2.90
2023-01-10T07:23:25.843Z,2.90
2023-01-10T07:25:52.902Z,2.90
2023-01-10T07:28:19.640Z,2.90
2023-01-10T07:30:46.614Z,2.90
2023-01-10T07:33:13.561Z,2.90
2023-01-10T07:35:40.293Z,2.90
2023-01-10T07:38:09.012Z,2.90
2023-01-10T07:40:35.846Z,2.90
2023-01-10T07:43:03.610Z,3.00
2023-01-10T07:45:31.087Z,2.90
2023-01-10T07:48:03.182Z,3.00
2023-01-10T07:50:33.325Z,3.00
2023-01-10T07:53:01.337Z,3.00
2023-01-10T07:55:28.906Z,3.00
2023-01-10T07:57:56.281Z,3.00
2023-01-10T08:00:23.068Z,3.10
2023-01-10T08:02:55.020Z,3.00
2023-01-10T08:05:23.049Z,3.10
2023-01-10T08:07:49.794Z,3.10
2023-01-10T08:10:16.758Z,3.10
2023-01-10T08:12:43.567Z,3.10
2023-01-10T08:15:10.659Z,3.10
2023-01-10T08:17:37.545Z,3.10
2023-01-10T08:20:04.653Z,3.10
2023-01-10T08:22:31.520Z,3.10
2023-01-10T08:24:58.482Z,3.10
2023-01-10T08:27:25.292Z,3.20
2023-01-10T08:29:52.078Z,3.10
2023-01-10T08:32:18.979Z,3.10
2023-01-10T08:34:45.792Z,3.10
2023-01-10T08:37:15.551Z,3.10
2023-01-10T08:39:42.476Z,3.10
2023-01-10T08:42:09.872Z,3.20
2023-01-10T08:44:36.878Z,3.10
2023-01-10T08:47:03.810Z,3.10
2023-01-10T08:49:30.693Z,3.10
2023-01-10T08:51:57.744Z,3.10
2023-01-10T08:54:24.611Z,3.10
2023-01-10T08:56:51.322Z,3.10
2023-01-10T08:59:18.140Z,3.10
2023-01-10T09:01:45.250Z,3.20
2023-01-10T09:04:12.207Z,3.20
2023-01-10T09:06:38.950Z,3.20
2023-01-10T09:09:06.048Z,3.20
2023-01-10T09:11:32.900Z,3.20
2023-01-10T09:13:59.644Z,3.30
2023-01-10T09:16:26.401Z,3.20
2023-01-10T09:18:53.340Z,3.30
2023-01-10T09:21:20.326Z,3.30
2023-01-10T09:23:47.089Z,3.30
2023-01-10T09:26:13.841Z,3.40
2023-01-10T09:28:40.640Z,3.30
2023-01-10T09:31:09.061Z,3.40
2023-01-10T09:33:46.366Z,3.30
2023-01-10T09:36:15.719Z,3.40
2023-01-10T09:38:42.891Z,3.40
2023-01-10T09:41:18.860Z,3.50
2023-01-10T09:43:58.818Z,3.50
2023-01-10T09:46:52.923Z,3.50
2023-01-10T09:49:25.246Z,3.50
2023-01-10T09:51:54.288Z,3.60
2023-01-10T09:54:28.250Z,3.60
2023-01-10T09:56:56.032Z,3.70
2023-01-10T09:59:31.308Z,3.70
2023-01-10T10:02:27.836Z,3.70
2023-01-10T10:05:19.283Z,3.80
2023-01-10T10:07:56.073Z,3.80
2023-01-10T10:10:49.497Z,3.90
2023-01-10T10:13:35.046Z,3.90
2023-01-10T10:16:22.657Z,3.90
2023-01-10T10:19:19.980Z,4.00
2023-01-10T10:21:55.745Z,4.10
2023-01-10T10:24:25.347Z,4.20
2023-01-10T10:27:09.617Z,4.20
2023-01-10T10:29:45.585Z,4.20
2023-01-10T10:32:23.875Z,4.20
2023-01-10T10:35:00.361Z,4.30
2023-01-10T10:37:38.477Z,4.30
2023-01-10T10:40:27.366Z,4.30
2023-01-10T10:42:57.014Z,4.40
2023-01-10T10:45:46.186Z,4.40
2023-01-10T10:48:19.362Z,4.50
2023-01-10T10:50:53.457Z,4.40
2023-01-10T10:53:20.206Z,4.40
2023-01-10T10:55:47.478Z,4.40
2023-01-10T10:58:14.810Z,4.50
2023-01-10T11:00:42.240Z,4.50
2023-01-10T11:03:30.559Z,4.40
2023-01-10T11:06:00.435Z,4.50
2023-01-10T11:08:29.828Z,4.60
2023-01-10T11:10:59.194Z,4.60
2023-01-10T11:13:34.971Z,4.60
2023-01-10T11:16:04.417Z,4.60
2023-01-10T11:18:33.055Z,4.60
2023-01-10T11:21:02.076Z,4.60
2023-01-10T11:23:34.769Z,4.60
2023-01-10T11:26:01.971Z,4.70
2023-01-10T11:28:32.179Z,4.70
2023-01-10T11:31:00.125Z,4.70
2023-01-10T11:33:30.980Z,4.70
2023-01-10T11:36:10.174Z,4.70
2023-01-10T11:38:37.199Z,4.70
2023-01-10T11:41:24.964Z,4.80
2023-01-10T11:43:51.750Z,4.70
2023-01-10T11:46:23.146Z,4.70
2023-01-10T11:49:06.918Z,4.70
2023-01-10T11:51:38.098Z,4.70
2023-01-10T11:54:10.974Z,4.70
2023-01-10T11:56:43.623Z,4.70
2023-01-10T11:59:14.779Z,4.80
2023-01-10T12:01:56.750Z,4.80
2023-01-10T12:04:24.743Z,4.80
2023-01-10T12:06:55.980Z,5.00
2023-01-10T12:09:40.630Z,5.10
2023-01-10T12:12:13.201Z,5.20
2023-01-10T12:14:40.033Z,5.30
2023-01-10T12:17:06.915Z,5.30
2023-01-10T12:19:33.744Z,5.30
2023-01-10T12:22:06.150Z,5.30
2023-01-10T12:24:39.084Z,5.30
2023-01-10T12:27:07.778Z,5.20
2023-01-10T12:29:52.593Z,5.20
2023-01-10T12:32:29.360Z,5.10
2023-01-10T12:35:06.288Z,5.10
2023-01-10T12:37:46.910Z,5.20
2023-01-10T12:40:37.377Z,5.00
2023-01-10T12:43:37.442Z,5.00
2023-01-10T12:46:28.121Z,5.00
2023-01-10T12:49:16.133Z,5.00
2023-01-10T12:51:44.368Z,5.00
2023-01-10T12:54:19.465Z,5.10
2023-01-10T12:56:47.914Z,5.20
2023-01-10T12:59:37.337Z,5.20
2023-01-10T13:02:22.468Z,5.10
2023-01-10T13:04:58.409Z,5.10
2023-01-10T13:07:32.412Z,5.10
2023-01-10T13:10:02.306Z,5.10
2023-01-10T13:12:45.596Z,5.10
2023-01-10T13:15:38.651Z,5.10
2023-01-10T13:18:17.803Z,5.10
2023-01-10T13:20:45.838Z,5.20
2023-01-10T13:23:22.787Z,5.30
2023-01-10T13:25:58.897Z,5.40
2023-01-10T13:28:30.147Z,5.50
2023-01-10T13:31:03.750Z,5.50
2023-01-10T13:33:33.545Z,5.50
2023-01-10T13:36:19.736Z,5.50
2023-01-10T13:38:54.212Z,5.60
2023-01-10T13:41:40.429Z,5.50
2023-01-10T13:44:11.923Z,5.60
2023-01-10T13:46:58.618Z,5.60
2023-01-10T13:49:41.723Z,5.50
2023-01-10T13:52:27.750Z,5.60
2023-01-10T13:55:19.802Z,5.60
2023-01-10T13:57:58.633Z,5.50
2023-01-10T14:00:53.266Z,5.50
2023-01-10T14:03:41.736Z,5.50
2023-01-10T14:06:13.953Z,5.50
2023-01-10T14:08:47.797Z,5.50
2023-01-10T14:11:14.586Z,5.50
2023-01-10T14:13:55.614Z,5.50
2023-01-10T14:16:36.788Z,5.50
2023-01-10T14:19:23.729Z,5.50
2023-01-10T14:21:55.084Z,5.40
2023-01-10T14:24:29.045Z,5.40
2023-01-10T14:27:00.502Z,5.40
2023-01-10T14:29:31.772Z,5.40
2023-01-10T14:32:00.423Z,5.30
2023-01-10T14:34:38.727Z,5.40
2023-01-10T14:37:16.920Z,5.30
2023-01-10T14:39:44.317Z,5.20
2023-01-10T14:42:16.657Z,5.10
2023-01-10T14:44:50.830Z,5.10
2023-01-10T14:47:32.839Z,5.10
2023-01-10T14:50:08.763Z,5.00
2023-01-10T14:52:35.467Z,5.00
2023-01-10T14:55:08.255Z,5.00
2023-01-10T14:57:34.991Z,4.90
2023-01-10T15:00:14.348Z,5.00
2023-01-10T15:02:49.121Z,4.80
2023-01-10T15:05:20.124Z,4.80
2023-01-10T15:07:47.160Z,4.80
2023-01-10T15:10:31.455Z,4.80
2023-01-10T15:13:02.240Z,4.80
2023-01-10T15:15:34.798Z,4.70
2023-01-10T15:18:07.372Z,4.70
2023-01-10T15:20:34.609Z,4.70
2023-01-10T15:23:02.054Z,4.60
2023-01-10T15:25:38.954Z,4.70
2023-01-10T15:28:17.629Z,4.60
2023-01-10T15:30:45.538Z,4.60
2023-01-10T15:33:20.545Z,4.60
2023-01-10T15:35:47.294Z,4.60
2023-01-10T15:38:16.779Z,4.60
2023-01-10T15:40:44.475Z,4.50
2023-01-10T15:43:27.593Z,4.50
2023-01-10T15:45:57.962Z,4.40
2023-01-10T15:48:41.569Z,4.40
2023-01-10T15:51:15.737Z,4.40
2023-01-10T15:53:51.749Z,4.40
2023-01-10T15:56:22.501Z,4.40
2023-01-10T15:58:49.391Z,4.30
2023-01-10T16:01:17.002Z,4.30
2023-01-10T16:03:50.741Z,4.30
2023-01-10T16:06:33.177Z,4.30
2023-01-10T16:09:07.324Z,4.20
2023-01-10T16:12:06.465Z,4.20
2023-01-10T16:14:36.433Z,4.10
2023-01-10T16:17:04.107Z,4.10
2023-01-10T16:19:30.919Z,4.10
2023-01-10T16:21:59.374Z,4.00
2023-01-10T16:24:34.161Z,4.00
2023-01-10T16:27:05.708Z,3.90
2023-01-10T16:29:33.803Z,4.00
2023-01-10T16:32:00.737Z,3.90
2023-01-10T16:34:28.074Z,3.90
2023-01-10T16:36:54.818Z,3.90
2023-01-10T16:39:23.447Z,3.90
2023-01-10T16:42:09.282Z,3.90
2023-01-10T16:44:36.106Z,3.90
2023-01-10T16:47:06.583Z,3.90
2023-01-10T16:49:33.573Z,3.90
2023-01-10T16:52:00.515Z,4.00
2023-01-10T16:54:28.545Z,3.90
2023-01-10T16:59:48.917Z,3.80
2023-01-10T17:02:18.914Z,3.80
2023-01-10T17:04:45.805Z,3.80
2023-01-10T17:07:12.908Z,3.80
2023-01-10T17:09:40.047Z,3.80
2023-01-10T17:12:12.233Z,3.90
2023-01-10T17:14:39.199Z,3.90
2023-01-10T17:17:06.227Z,3.90
2023-01-10T17:19:33.059Z,3.80
2023-01-10T17:22:00.488Z,3.80
2023-01-10T17:24:29.849Z,3.90
2023-01-10T17:26:56.788Z,3.90
2023-01-10T17:29:23.619Z,3.90
2023-01-10T17:31:50.548Z,3.80
2023-01-10T17:34:17.612Z,3.80
2023-01-10T17:36:44.446Z,3.80
2023-01-10T17:39:11.574Z,3.80
2023-01-10T17:41:38.530Z,3.80
2023-01-10T17:44:05.451Z,3.80
2023-01-10T17:46:32.567Z,3.70
2023-01-10T17:49:01.333Z,3.80
2023-01-10T17:51:28.992Z,3.80
2023-01-10T17:53:56.221Z,3.70
2023-01-10T17:56:23.240Z,3.70
2023-01-10T17:58:51.726Z,3.70
2023-01-10T18:01:24.674Z,3.70
2023-01-10T18:03:52.696Z,3.80
2023-01-10T18:06:25.080Z,3.70
2023-01-10T18:08:52.919Z,3.70
2023-01-10T18:11:20.386Z,3.70
2023-01-10T18:13:47.242Z,3.70
2023-01-10T18:16:14.214Z,3.70
2023-01-10T18:18:41.333Z,3.70
2023-01-10T18:21:15.967Z,3.60
2023-01-10T18:23:43.238Z,3.60
2023-01-10T18:26:12.005Z,3.70
2023-01-10T18:28:45.096Z,3.60
2023-01-10T18:31:17.383Z,3.50
2023-01-10T18:33:46.529Z,3.60
2023-01-10T18:36:25.041Z,3.60
2023-01-10T18:38:52.478Z,3.60
2023-01-10T18:41:20.436Z,3.60
2023-01-10T18:43:47.786Z,3.60
2023-01-10T18:46:37.388Z,3.60
2023-01-10T18:49:04.059Z,3.60
2023-01-10T18:51:30.887Z,3.60
2023-01-10T18:53:57.701Z,3.70
2023-01-10T18:56:24.394Z,3.60
2023-01-10T18:58:51.124Z,3.70
2023-01-10T19:01:20.417Z,3.60
2023-01-10T19:03:47.291Z,3.70
2023-01-10T19:06:16.648Z,3.60
2023-01-10T19:08:44.443Z,3.70
2023-01-10T19:11:14.916Z,3.70
2023-01-10T19:13:46.458Z,3.70
2023-01-10T19:16:22.138Z,3.70
2023-01-10T19:18:52.816Z,3.70
2023-01-10T19:21:20.445Z,3.70
2023-01-10T19:23:50.580Z,3.70
2023-01-10T19:26:17.573Z,3.70
2023-01-10T19:28:46.829Z,3.80
2023-01-10T19:31:22.408Z,3.70
2023-01-10T19:33:50.645Z,3.70
2023-01-10T19:36:19.570Z,3.80
2023-01-10T19:38:46.454Z,3.80
2023-01-10T19:41:16.628Z,3.80
2023-01-10T19:43:43.415Z,3.70
2023-01-10T19:46:11.874Z,3.80
2023-01-10T19:48:39.162Z,3.80
2023-01-10T19:51:11.632Z,3.80
2023-01-10T19:53:44.932Z,3.80
2023-01-10T19:56:12.327Z,3.80
2023-01-10T19:58:39.486Z,3.80
2023-01-10T20:01:09.027Z,3.80
2023-01-10T20:03:35.878Z,3.80
2023-01-10T20:06:06.461Z,3.90
2023-01-10T20:08:33.160Z,3.80
2023-01-10T20:11:07.009Z,3.80
2023-01-10T20:13:37.228Z,3.80
2023-01-10T20:16:05.716Z,3.90
2023-01-10T20:18:32.838Z,3.90
2023-01-10T20:21:03.062Z,3.90
2023-01-10T20:23:31.356Z,3.90
2023-01-10T20:25:59.146Z,3.90
2023-01-10T20:28:26.513Z,3.90
2023-01-10T20:30:53.576Z,3.90
2023-01-10T20:33:21.990Z,4.00
2023-01-10T20:35:59.489Z,4.00
2023-01-10T20:38:28.078Z,4.00
2023-01-10T20:41:18.541Z,4.00
2023-01-10T20:43:45.745Z,4.00
2023-01-10T20:46:15.285Z,4.00
2023-01-10T20:48:42.465Z,4.00
2023-01-10T20:51:13.515Z,4.00
2023-01-10T20:53:40.346Z,4.00
2023-01-10T20:56:11.056Z,4.00
2023-01-10T20:58:39.664Z,4.00
2023-01-10T21:01:09.504Z,4.00
2023-01-10T21:03:36.253Z,4.00
2023-01-10T21:06:03.338Z,4.10
2023-01-10T21:08:30.242Z,4.10
2023-01-10T21:10:57.866Z,4.10
2023-01-10T21:13:25.262Z,4.10
2023-01-10T21:15:57.170Z,4.10
2023-01-10T21:18:27.093Z,4.10
2023-01-10T21:20:56.011Z,4.10
2023-01-10T21:23:25.017Z,4.10
2023-01-10T21:25:53.542Z,4.10
2023-01-10T21:28:21.031Z,4.00
2023-01-10T21:30:47.878Z,4.00
2023-01-10T21:33:14.761Z,4.00
2023-01-10T21:35:41.601Z,4.00
2023-01-10T21:38:09.029Z,4.00
2023-01-10T21:40:35.748Z,4.00
2023-01-10T21:43:02.777Z,4.10
2023-01-10T21:45:29.671Z,4.00
2023-01-10T21:47:56.470Z,4.00
2023-01-10T21:50:23.571Z,4.00
2023-01-10T21:52:50.395Z,4.00
2023-01-10T21:55:17.729Z,4.10
2023-01-10T21:57:44.735Z,4.10
2023-01-10T22:00:12.027Z,4.00
2023-01-10T22:02:38.977Z,4.00
2023-01-10T22:05:06.351Z,4.10
2023-01-10T22:07:33.119Z,4.10
2023-01-10T22:09:59.876Z,4.10
2023-01-10T22:12:26.624Z,4.10
2023-01-10T22:14:53.534Z,4.20
2023-01-10T22:17:20.474Z,4.10
2023-01-10T22:19:47.176Z,4.10
2023-01-10T22:22:14.121Z,4.10
2023-01-10T22:24:43.687Z,4.20
2023-01-10T22:27:11.154Z,4.20
2023-01-10T22:29:38.139Z,4.20
2023-01-10T22:32:05.067Z,4.30
2023-01-10T22:34:31.868Z,4.40
2023-01-10T22:36:58.762Z,4.30
2023-01-10T22:39:25.703Z,4.30
2023-01-10T22:41:55.311Z,4.40
2023-01-10T22:44:26.781Z,4.30
2023-01-10T22:46:55.510Z,4.40
2023-01-10T22:49:22.836Z,4.30
2023-01-10T22:51:50.439Z,4.40
2023-01-10T22:54:17.819Z,4.40
2023-01-10T22:56:46.462Z,4.40
2023-01-10T22:59:13.816Z,4.50
2023-01-10T23:01:40.770Z,4.50
2023-01-10T23:04:07.680Z,4.60
2023-01-10T23:06:34.661Z,4.60
2023-01-10T23:09:01.510Z,4.70
2023-01-10T23:11:28.176Z,4.60
2023-01-10T23:13:54.909Z,4.70
2023-01-10T23:16:28.512Z,4.70
2023-01-10T23:18:59.658Z,4.70
2023-01-10T23:21:28.672Z,4.60
2023-01-10T23:23:55.883Z,4.60
2023-01-10T23:26:23.009Z,4.70
2023-01-10T23:28:51.188Z,4.80
2023-01-10T23:31:21.687Z,4.70
2023-01-10T23:33:49.422Z,4.80
2023-01-10T23:36:17.590Z,4.80
2023-01-10T23:38:44.522Z,4.80
2023-01-10T23:41:11.724Z,4.80
2023-01-10T23:43:38.590Z,4.80
2023-01-10T23:46:06.909Z,4.80
2023-01-10T23:48:33.944Z,4.80
2023-01-10T23:51:00.851Z,4.90
2023-01-10T23:53:27.691Z,4.90
2023-01-10T23:55:54.595Z,4.90
2023-01-10T23:58:21.264Z,4.90
